Time;durP1;ratioP1;P1;durP2;ratioP2;P2;SDS_P1;SDS_P2;PMS_P1;PMS_P2;Temp;Humidity;BMP_temperature;BMP_pressure;BME280_temperature;BME280_humidity;BME280_pressure;Samples;Min_cycle;Max_cycle;Signal;HPM_P1;HPM_P2
2021/04/06 00:01:35;;;;;;;1.90;1.60;;;;;;;0.30;77.58;99935.56;5050475;28;20304;-63
2021/04/06 00:04:05;;;;;;;2.90;1.70;;;;;;;0.29;77.83;99938.22;5047544;28;20226;-64
2021/04/06 00:06:33;;;;;;;1.90;1.30;;;;;;;0.27;78.03;99935.66;5053307;28;20201;-63
2021/04/06 00:09:01;;;;;;;2.10;1.40;;;;;;;0.26;78.02;99940.94;5038933;28;20201;-63
2021/04/06 00:11:28;;;;;;;4.00;1.40;;;;;;;0.26;78.47;99930.47;5046601;28;20587;-63
2021/04/06 00:13:55;;;;;;;2.23;1.53;;;;;;;0.25;78.38;99927.00;5051547;28;20232;-62
2021/04/06 00:16:23;;;;;;;2.67;1.50;;;;;;;0.23;78.34;99928.81;5049074;28;20193;-66
2021/04/06 00:18:52;;;;;;;2.03;1.70;;;;;;;0.23;78.68;99927.94;5051194;28;20209;-63
2021/04/06 00:21:19;;;;;;;2.70;1.87;;;;;;;0.23;78.58;99922.72;5050576;28;20201;-63
2021/04/06 00:23:47;;;;;;;2.90;1.90;;;;;;;0.22;78.62;99921.84;5050117;28;20719;-63
2021/04/06 00:26:14;;;;;;;2.47;2.07;;;;;;;0.24;78.79;99927.91;5050938;28;20263;-63
2021/04/06 00:28:43;;;;;;;1.73;1.63;;;;;;;0.25;78.97;99923.53;5050296;28;20206;-66
2021/04/06 00:31:12;;;;;;;2.87;2.00;;;;;;;0.24;79.12;99911.31;5050200;28;20229;-63
2021/04/06 00:33:42;;;;;;;3.73;2.07;;;;;;;0.26;79.02;99917.38;5047931;28;20201;-63
2021/04/06 00:36:10;;;;;;;3.13;2.17;;;;;;;0.27;79.27;99911.22;5050451;28;20202;-64
2021/04/06 00:38:39;;;;;;;3.10;2.20;;;;;;;0.28;79.39;99916.44;5047862;28;20198;-63
2021/04/06 00:41:08;;;;;;;3.53;2.47;;;;;;;0.30;79.71;99909.38;5050666;28;20724;-64
2021/04/06 00:43:36;;;;;;;3.70;2.30;;;;;;;0.32;79.52;99914.56;5049667;28;20205;-63
2021/04/06 00:46:04;;;;;;;4.30;2.40;;;;;;;0.34;79.57;99920.63;5068352;22;20235;-77
2021/04/06 00:48:32;;;;;;;2.67;1.80;;;;;;;0.35;79.51;99922.31;5061842;28;20249;-79
2021/04/06 00:51:11;;;;;;;3.47;2.03;;;;;;;0.36;79.66;99918.78;5042369;28;20204;-78
2021/04/06 00:53:53;;;;;;;3.03;2.40;;;;;;;0.37;79.71;99915.25;5036993;28;20208;-78
2021/04/06 00:56:21;;;;;;;3.40;2.33;;;;;;;0.39;79.71;99918.66;5028526;28;20567;-79
2021/04/06 00:58:52;;;;;;;3.27;2.40;;;;;;;0.40;79.74;99924.78;5039653;28;20287;-77
2021/04/06 01:01:28;;;;;;;2.90;1.93;;;;;;;0.43;79.72;99925.53;5042577;28;20205;-79
2021/04/06 01:03:57;;;;;;;3.87;2.67;;;;;;;0.45;79.81;99921.09;5036791;28;20239;-79
2021/04/06 01:06:24;;;;;;;2.20;2.00;;;;;;;0.46;79.94;99922.81;5034223;28;20705;-80
2021/04/06 01:08:52;;;;;;;3.07;2.20;;;;;;;0.47;79.78;99921.91;5041110;28;20222;-78
2021/04/06 01:11:18;;;;;;;3.40;2.53;;;;;;;0.47;79.88;99921.06;5041358;28;20781;-78
2021/04/06 01:13:45;;;;;;;3.27;2.43;;;;;;;0.48;80.13;99926.25;5044684;28;20549;-79
2021/04/06 01:16:12;;;;;;;3.30;2.13;;;;;;;0.50;80.22;99924.44;5045671;28;20218;-79
2021/04/06 01:18:38;;;;;;;3.17;2.47;;;;;;;0.51;79.77;99925.28;5037221;28;20568;-80
2021/04/06 01:21:10;;;;;;;2.70;2.17;;;;;;;0.52;80.10;99935.72;5051931;28;20660;-79
2021/04/06 01:23:38;;;;;;;2.93;2.10;;;;;;;0.53;80.37;99932.19;5041615;28;20210;-79
2021/04/06 01:26:10;;;;;;;2.50;2.07;;;;;;;0.55;79.74;99945.22;5040646;28;20313;-78
2021/04/06 01:28:37;;;;;;;2.37;1.80;;;;;;;0.55;80.30;99940.81;5038604;28;22186;-78
2021/04/06 01:31:05;;;;;;;1.80;1.30;;;;;;;0.54;80.32;99943.50;5029612;28;20241;-77
2021/04/06 01:33:32;;;;;;;1.77;1.27;;;;;;;0.53;80.36;99942.66;5047776;28;20274;-79
2021/04/06 01:36:00;;;;;;;2.13;1.30;;;;;;;0.52;80.18;99945.34;5041566;28;20197;-78
2021/04/06 01:38:27;;;;;;;1.17;0.77;;;;;;;0.51;80.22;99954.09;5037413;28;20203;-78
2021/04/06 01:40:56;;;;;;;0.60;0.60;;;;;;;0.46;80.34;99940.28;5039129;28;20785;-78
2021/04/06 01:43:27;;;;;;;0.60;0.50;;;;;;;0.40;80.38;99953.59;5038362;28;20210;-79
2021/04/06 01:45:58;;;;;;;1.23;0.53;;;;;;;0.34;80.33;99957.28;5025572;28;20244;-78
2021/04/06 01:48:28;;;;;;;0.93;0.27;;;;;;;0.28;80.12;99967.94;5036100;28;20213;-79
2021/04/06 01:50:55;;;;;;;1.00;0.30;;;;;;;0.23;80.15;99964.59;5028380;28;20703;-78
2021/04/06 01:53:23;;;;;;;0.40;0.40;;;;;;;0.20;80.20;99964.69;5033219;28;20294;-78
2021/04/06 01:55:52;;;;;;;1.03;0.20;;;;;;;0.17;80.31;99977.91;5044192;28;20206;-78
2021/04/06 01:58:21;;;;;;;0.30;0.30;;;;;;;0.12;80.42;99971.97;5040314;28;20202;-77
2021/04/06 02:01:00;;;;;;;0.43;0.20;;;;;;;0.10;80.28;99981.63;5037235;28;20222;-77
2021/04/06 02:03:30;;;;;;;0.40;0.30;;;;;;;0.07;80.23;99977.34;5036045;28;20191;-76
2021/04/06 02:05:56;;;;;;;0.40;0.20;;;;;;;0.06;80.01;99982.63;5037022;28;20230;-78
2021/04/06 02:08:26;;;;;;;0.60;0.20;;;;;;;0.03;80.16;99978.31;5036829;28;20318;-77
2021/04/06 02:10:53;;;;;;;0.53;0.20;;;;;;;0.03;80.29;99985.31;5037045;28;20222;-77
2021/04/06 02:13:20;;;;;;;0.57;0.20;;;;;;;0.00;80.23;99989.75;5026794;28;20210;-78
2021/04/06 02:15:54;;;;;;;0.27;0.27;;;;;;;-0.02;80.15;99991.59;5018215;28;20230;-78
2021/04/06 02:18:22;;;;;;;0.60;0.20;;;;;;;-0.03;80.17;99989.88;5017951;28;20672;-78
2021/04/06 02:20:52;;;;;;;1.53;0.30;;;;;;;-0.05;79.85;99999.53;5027648;28;20692;-78
2021/04/06 02:23:19;;;;;;;0.37;0.27;;;;;;;-0.07;80.10;99996.09;5036773;28;20198;-78
2021/04/06 02:25:50;;;;;;;0.53;0.20;;;;;;;-0.10;79.84;99992.69;5037300;28;20230;-78
2021/04/06 02:28:17;;;;;;;2.27;0.40;;;;;;;-0.14;80.16;100002.41;5037483;28;20187;-81
2021/04/06 02:30:54;;;;;;;1.37;0.30;;;;;;;-0.15;79.87;100002.44;5036851;28;20233;-77
2021/04/06 02:33:25;;;;;;;0.93;0.30;;;;;;;-0.17;79.77;100007.72;5037523;28;20198;-78
2021/04/06 02:36:00;;;;;;;0.37;0.20;;;;;;;-0.21;79.63;100000.88;5037370;28;20206;-78
2021/04/06 02:38:27;;;;;;;1.13;0.27;;;;;;;-0.22;79.77;100004.41;5037737;28;20201;-78
2021/04/06 02:41:05;;;;;;;1.87;0.50;;;;;;;-0.23;79.80;99996.59;5027797;28;20218;-80
2021/04/06 02:43:46;;;;;;;1.07;0.40;;;;;;;-0.24;79.67;100002.75;5034556;28;20234;-81
2021/04/06 02:46:15;;;;;;;2.10;0.60;;;;;;;-0.24;79.64;100011.44;5034011;28;20308;-81
2021/04/06 02:48:41;;;;;;;0.80;0.50;;;;;;;-0.25;79.37;100007.09;5034150;28;20260;-81
2021/04/06 02:51:09;;;;;;;3.73;0.67;;;;;;;-0.25;79.68;100011.47;5033249;28;20213;-81
2021/04/06 02:53:37;;;;;;;1.63;0.40;;;;;;;-0.28;79.53;100006.34;5031488;28;20206;-82
2021/04/06 02:56:03;;;;;;;1.33;0.60;;;;;;;-0.29;79.36;100004.63;5033108;28;20218;-82
2021/04/06 02:58:35;;;;;;;1.83;0.67;;;;;;;-0.31;79.38;100004.66;5031600;28;20293;-80
2021/04/06 03:01:12;;;;;;;0.70;0.30;;;;;;;-0.35;79.48;99997.78;5027828;28;20247;-81
2021/04/06 03:03:39;;;;;;;1.37;1.03;;;;;;;-0.38;79.28;100004.00;5035663;28;20198;-82
2021/04/06 03:06:08;;;;;;;1.23;0.70;;;;;;;-0.41;79.28;100000.63;5034765;28;20226;-80
2021/04/06 03:08:36;;;;;;;1.33;0.70;;;;;;;-0.44;79.07;99993.72;5038193;28;20214;-81
2021/04/06 03:11:06;;;;;;;1.27;0.90;;;;;;;-0.45;79.52;99993.75;5027868;28;20293;-80
2021/04/06 03:13:33;;;;;;;1.53;1.10;;;;;;;-0.48;79.08;100001.69;5033704;28;20206;-81
2021/04/06 03:15:59;;;;;;;1.47;1.10;;;;;;;-0.51;79.18;100002.63;5033906;28;20285;-80
2021/04/06 03:18:36;;;;;;;2.60;1.13;;;;;;;-0.52;79.24;100005.28;5034716;28;20202;-80
2021/04/06 03:21:05;;;;;;;3.23;1.40;;;;;;;-0.55;79.07;100005.38;5034999;28;20202;-79
2021/04/06 03:23:33;;;;;;;3.03;1.33;;;;;;;-0.57;78.81;99996.72;5038769;28;20574;-81
2021/04/06 03:26:00;;;;;;;2.87;1.80;;;;;;;-0.56;79.29;99991.47;5043737;28;20289;-81
2021/04/06 03:28:35;;;;;;;2.53;1.70;;;;;;;-0.57;79.36;99992.34;5038870;28;20209;-80
2021/04/06 03:31:09;;;;;;;2.30;1.77;;;;;;;-0.56;78.97;99995.81;5052742;28;20619;-80
2021/04/06 03:33:38;;;;;;;2.10;1.67;;;;;;;-0.56;78.76;99995.81;5035822;28;20201;-80
2021/04/06 03:36:06;;;;;;;3.13;1.80;;;;;;;-0.58;78.76;100001.09;5036634;28;20228;-82
2021/04/06 03:38:32;;;;;;;4.20;1.90;;;;;;;-0.60;79.07;100002.03;5035160;28;20206;-81
2021/04/06 03:40:58;;;;;;;2.10;1.67;;;;;;;-0.61;78.94;100000.31;5041842;28;20202;-80
2021/04/06 03:43:24;;;;;;;3.53;1.80;;;;;;;-0.62;78.69;99996.00;5032589;28;20222;-81
2021/04/06 03:45:55;;;;;;;4.13;1.70;;;;;;;-0.63;78.78;100002.13;5036965;28;20257;-81
2021/04/06 03:48:22;;;;;;;3.80;1.60;;;;;;;-0.64;78.87;100000.41;5036014;28;20209;-81
2021/04/06 03:50:48;;;;;;;3.97;1.87;;;;;;;-0.62;79.10;100002.06;5038183;28;20226;-81
2021/04/06 03:53:15;;;;;;;2.70;1.60;;;;;;;-0.62;78.99;100011.69;5039535;28;20589;-80
2021/04/06 03:55:43;;;;;;;4.10;2.00;;;;;;;-0.62;78.76;100004.69;5042525;28;20335;-81
2021/04/06 03:58:13;;;;;;;2.67;1.70;;;;;;;-0.62;79.04;100009.94;5040010;28;20210;-81
2021/04/06 04:00:39;;;;;;;3.87;1.90;;;;;;;-0.61;78.84;100016.88;5034783;28;21452;-80
2021/04/06 04:03:06;;;;;;;3.27;1.93;;;;;;;-0.60;79.14;100015.13;5033493;28;20222;-79
2021/04/06 04:05:32;;;;;;;7.63;2.17;;;;;;;-0.58;79.02;100015.94;5041703;28;20273;-82
2021/04/06 04:07:58;;;;;;;3.97;2.37;;;;;;;-0.56;79.35;100014.13;5053495;28;20217;-81
2021/04/06 04:10:26;;;;;;;6.80;2.73;;;;;;;-0.55;79.23;100014.09;5032552;28;20339;-80
2021/04/06 04:12:52;;;;;;;3.90;2.83;;;;;;;-0.52;79.54;100021.81;5039356;28;20221;-81
2021/04/06 04:15:18;;;;;;;7.90;3.30;;;;;;;-0.49;79.53;100016.50;5033020;28;20273;-81
2021/04/06 04:17:48;;;;;;;6.10;3.90;;;;;;;-0.47;79.42;100019.09;5036272;28;20616;-80
2021/04/06 04:20:16;;;;;;;5.03;3.20;;;;;;;-0.43;79.93;100024.19;5031647;28;20226;-80
2021/04/06 04:22:42;;;;;;;8.37;4.17;;;;;;;-0.39;79.64;100022.34;5036399;28;20206;-80
2021/04/06 04:25:09;;;;;;;5.13;3.20;;;;;;;-0.35;79.71;100019.59;5037087;28;20231;-81
2021/04/06 04:27:36;;;;;;;5.03;3.30;;;;;;;-0.30;80.07;100016.00;5036921;28;20557;-81
2021/04/06 04:30:03;;;;;;;7.83;3.67;;;;;;;-0.25;79.90;100020.19;5038313;28;20232;-80
2021/04/06 04:32:29;;;;;;;4.57;2.80;;;;;;;-0.22;80.02;100014.88;5034696;28;20230;-79
2021/04/06 04:34:55;;;;;;;3.80;3.00;;;;;;;-0.17;80.01;100012.97;5027711;28;20325;-79
2021/04/06 04:37:21;;;;;;;5.27;3.07;;;;;;;-0.13;80.21;100014.59;5038437;28;20198;-79
2021/04/06 04:39:47;;;;;;;6.80;2.80;;;;;;;-0.10;80.33;100014.50;5043910;28;20645;-82
2021/04/06 04:42:13;;;;;;;3.17;2.63;;;;;;;-0.07;80.25;100013.56;5037425;28;20206;-79
2021/04/06 04:44:40;;;;;;;4.30;2.57;;;;;;;-0.03;80.36;100021.28;5037187;28;20214;-80
2021/04/06 04:47:06;;;;;;;2.67;2.17;;;;;;;0.00;80.33;100020.34;5036595;28;20225;-81
2021/04/06 04:49:32;;;;;;;3.87;2.40;;;;;;;0.03;80.46;100016.75;5046001;28;20225;-81
2021/04/06 04:51:58;;;;;;;6.23;2.60;;;;;;;0.06;80.37;100017.50;5035860;28;20212;-80
2021/04/06 04:54:25;;;;;;;4.23;2.63;;;;;;;0.09;80.03;100019.19;5036370;28;20214;-80
2021/04/06 04:56:51;;;;;;;4.23;2.37;;;;;;;0.11;80.05;100025.22;5038417;28;20206;-80
2021/04/06 04:59:17;;;;;;;7.33;3.53;;;;;;;0.12;80.50;100012.09;5033449;28;20264;-81
2021/04/06 05:01:44;;;;;;;2.80;1.90;;;;;;;0.15;79.93;100011.16;5038926;28;20272;-81
2021/04/06 05:04:10;;;;;;;3.23;2.40;;;;;;;0.16;80.58;100011.09;5040201;28;20216;-80
2021/04/06 05:06:36;;;;;;;5.97;2.53;;;;;;;0.18;80.55;100011.06;5035334;28;20704;-80
2021/04/06 05:09:03;;;;;;;5.93;2.67;;;;;;;0.19;80.39;100016.22;5037244;28;20233;-80
2021/04/06 05:11:29;;;;;;;4.33;2.90;;;;;;;0.21;80.26;100013.56;5046640;28;20216;-80
2021/04/06 05:13:55;;;;;;;7.87;2.57;;;;;;;0.21;80.42;100022.25;5033760;28;20207;-81
2021/04/06 05:16:21;;;;;;;4.43;2.33;;;;;;;0.23;80.16;100022.22;5034386;28;20195;-81
2021/04/06 05:18:48;;;;;;;6.03;3.07;;;;;;;0.23;80.19;100023.06;5035030;28;20213;-82
2021/04/06 05:21:14;;;;;;;4.00;2.57;;;;;;;0.26;80.08;100016.88;5041317;28;20211;-81
2021/04/06 05:23:41;;;;;;;3.67;2.30;;;;;;;0.28;80.15;100020.31;5038134;28;20252;-81
2021/04/06 05:26:07;;;;;;;4.83;2.80;;;;;;;0.29;80.22;100022.03;5040084;28;20229;-81
2021/04/06 05:28:33;;;;;;;4.07;2.10;;;;;;;0.31;80.13;100023.72;5034084;28;20207;-81
2021/04/06 05:30:59;;;;;;;5.50;2.23;;;;;;;0.32;80.05;100028.03;5030748;28;20198;-80
2021/04/06 05:33:25;;;;;;;4.47;2.23;;;;;;;0.34;79.88;100028.84;5029743;28;20275;-80
2021/04/06 05:35:53;;;;;;;3.67;2.20;;;;;;;0.37;79.52;100034.88;5038426;28;20601;-80
2021/04/06 05:38:19;;;;;;;6.23;2.80;;;;;;;0.39;80.25;100033.94;5035723;28;20202;-81
2021/04/06 05:40:45;;;;;;;5.10;2.27;;;;;;;0.41;80.23;100041.75;5032550;28;20222;-80
2021/04/06 05:43:14;;;;;;;4.80;2.40;;;;;;;0.41;80.25;100032.13;5047005;28;20240;-80
2021/04/06 05:45:44;;;;;;;4.50;2.50;;;;;;;0.43;80.22;100046.03;5029986;28;20234;-80
2021/04/06 05:48:15;;;;;;;4.50;2.60;;;;;;;0.44;80.14;100047.75;5036938;28;20925;-81
2021/04/06 05:50:45;;;;;;;3.10;2.37;;;;;;;0.46;80.25;100051.19;5037838;28;20320;-80
2021/04/06 05:53:12;;;;;;;5.63;2.63;;;;;;;0.47;80.45;100047.66;5036691;28;20298;-80
2021/04/06 05:55:38;;;;;;;6.10;2.83;;;;;;;0.49;80.44;100056.31;5039834;28;20202;-80
2021/04/06 05:58:04;;;;;;;5.43;2.73;;;;;;;0.53;80.64;100047.47;5037838;28;20231;-80
2021/04/06 06:00:31;;;;;;;5.83;2.53;;;;;;;0.56;80.48;100046.47;5040787;28;20814;-80
2021/04/06 06:02:57;;;;;;;4.33;2.63;;;;;;;0.56;80.76;100042.09;5031686;28;20219;-80
2021/04/06 06:05:23;;;;;;;3.10;2.30;;;;;;;0.59;80.48;100039.38;5028158;28;20242;-80
2021/04/06 06:07:49;;;;;;;4.10;2.53;;;;;;;0.63;80.51;100046.25;5030223;28;20285;-81
2021/04/06 06:10:28;;;;;;;2.73;2.40;;;;;;;0.71;80.65;100047.78;5034039;28;20568;-81
2021/04/06 06:12:54;;;;;;;4.40;2.43;;;;;;;0.80;80.68;100047.47;5024014;28;20205;-80
2021/04/06 06:15:20;;;;;;;3.57;2.80;;;;;;;0.87;80.73;100036.72;5028766;28;20285;-80
2021/04/06 06:18:02;;;;;;;5.20;2.17;;;;;;;0.95;80.73;100045.19;5035562;28;20568;-80
2021/04/06 06:20:28;;;;;;;3.43;2.17;;;;;;;0.98;80.60;100047.69;5027000;28;20317;-80
2021/04/06 06:22:54;;;;;;;3.37;2.33;;;;;;;0.99;80.50;100051.19;5029850;28;20237;-80
2021/04/06 06:25:20;;;;;;;3.53;2.27;;;;;;;1.02;80.46;100051.09;5037285;28;20229;-80
2021/04/06 06:27:48;;;;;;;4.17;2.07;;;;;;;1.04;80.30;100062.38;5030981;28;20206;-79
2021/04/06 06:30:29;;;;;;;3.67;1.90;;;;;;;1.04;80.24;100051.91;5026470;28;20309;-82
2021/04/06 06:33:20;;;;;;;3.23;1.80;;;;;;;1.09;80.36;100064.81;5024388;28;20202;-82
2021/04/06 06:35:48;;;;;;;4.13;1.57;;;;;;;1.12;80.01;100057.72;5025280;28;20680;-82
2021/04/06 06:38:16;;;;;;;3.00;1.80;;;;;;;1.17;80.15;100060.19;5027086;28;20228;-81
2021/04/06 06:40:43;;;;;;;4.10;1.70;;;;;;;1.21;80.13;100057.41;5030637;28;20233;-82
2021/04/06 06:43:12;;;;;;;5.40;1.80;;;;;;;1.26;79.92;100063.34;5037138;28;20202;-82
2021/04/06 06:45:38;;;;;;;3.43;2.03;;;;;;;1.30;80.00;100059.69;5031767;28;20244;-82
2021/04/06 06:48:05;;;;;;;3.73;2.20;;;;;;;1.32;79.96;100052.63;5033089;28;20243;-82
2021/04/06 06:50:31;;;;;;;3.90;1.80;;;;;;;1.35;79.60;100059.56;5032356;28;20233;-83
2021/04/06 06:52:58;;;;;;;2.93;1.80;;;;;;;1.35;79.89;100057.78;5039740;28;20209;-82
2021/04/06 06:55:25;;;;;;;5.27;2.13;;;;;;;1.37;79.44;100053.34;5037489;28;20285;-83
2021/04/06 06:58:01;;;;;;;5.30;1.50;;;;;;;1.41;79.09;100061.13;5040343;28;20206;-81
2021/04/06 07:00:28;;;;;;;4.20;1.70;;;;;;;1.45;79.19;100062.69;5040761;28;20222;-81
2021/04/06 07:02:54;;;;;;;4.40;2.60;;;;;;;1.48;79.32;100057.34;5035013;28;20210;-82
2021/04/06 07:05:23;;;;;;;4.13;1.77;;;;;;;1.52;78.93;100062.44;5039299;28;20360;-81
2021/04/06 07:08:02;;;;;;;4.33;1.93;;;;;;;1.56;78.67;100063.19;5035957;28;20321;-81
2021/04/06 07:10:31;;;;;;;4.10;2.10;;;;;;;1.58;78.91;100061.38;5034810;28;20228;-81
2021/04/06 07:13:04;;;;;;;4.93;1.90;;;;;;;1.59;78.46;100068.34;5041481;28;20205;-80
2021/04/06 07:15:32;;;;;;;4.47;2.03;;;;;;;1.59;78.58;100068.34;5037219;28;20202;-79
2021/04/06 07:18:02;;;;;;;6.20;2.23;;;;;;;1.61;78.46;100069.13;5036820;28;20202;-80
2021/04/06 07:20:31;;;;;;;19.47;4.63;;;;;;;1.67;78.03;100074.16;5032080;28;20221;-80
2021/04/06 07:22:59;;;;;;;8.13;2.43;;;;;;;1.73;78.13;100066.91;5038434;28;20206;-81
2021/04/06 07:25:26;;;;;;;5.80;2.20;;;;;;;1.83;78.12;100061.31;5039127;28;20256;-78
2021/04/06 07:27:54;;;;;;;5.00;2.00;;;;;;;1.94;78.13;100065.28;5043369;28;20211;-80
2021/04/06 07:30:21;;;;;;;7.73;2.13;;;;;;;2.01;78.14;100066.72;5050907;28;20228;-79
2021/04/06 07:32:49;;;;;;;4.70;1.60;;;;;;;2.11;77.57;100062.00;5040152;28;20742;-78
2021/04/06 07:35:15;;;;;;;8.07;1.70;;;;;;;2.23;77.19;100065.91;5042745;28;20216;-80
2021/04/06 07:37:44;;;;;;;6.07;1.67;;;;;;;2.34;77.26;100063.72;5045513;28;20223;-79
2021/04/06 07:40:13;;;;;;;5.67;1.60;;;;;;;2.45;77.30;100058.91;5039789;28;20222;-80
2021/04/06 07:42:42;;;;;;;6.00;2.17;;;;;;;2.51;75.84;100060.47;5035069;28;20202;-80
2021/04/06 07:45:10;;;;;;;7.33;2.30;;;;;;;2.56;76.16;100055.84;5037901;28;20260;-79
2021/04/06 07:47:38;;;;;;;12.10;2.77;;;;;;;2.64;75.69;100043.28;5039623;28;20203;-78
2021/04/06 07:50:11;;;;;;;6.33;1.80;;;;;;;2.71;75.26;100053.47;5036598;28;20225;-79
2021/04/06 07:52:38;;;;;;;7.63;2.37;;;;;;;2.79;74.77;100061.06;5041197;28;20645;-78
2021/04/06 07:55:05;;;;;;;6.20;1.53;;;;;;;2.87;74.77;100052.81;5046158;28;20205;-78
2021/04/06 07:57:47;;;;;;;3.67;1.00;;;;;;;2.99;74.31;100047.94;5041638;28;20210;-78
2021/04/06 08:00:49;;;;;;;6.07;2.23;;;;;;;3.10;73.39;100060.63;5043710;28;20238;-77
2021/04/06 08:03:54;;;;;;;4.50;1.63;;;;;;;3.18;73.24;100057.69;5046540;28;20201;-80
2021/04/06 08:06:22;;;;;;;7.37;2.27;;;;;;;3.27;72.63;100058.13;5048734;28;20229;-79
2021/04/06 08:08:49;;;;;;;8.13;2.13;;;;;;;3.29;72.69;100064.19;5051710;28;20652;-80
2021/04/06 08:11:15;;;;;;;8.03;2.17;;;;;;;3.29;71.47;100073.84;5052347;28;20229;-78
2021/04/06 08:13:42;;;;;;;6.50;2.13;;;;;;;3.24;71.52;100067.94;5048237;28;20211;-79
2021/04/06 08:16:12;;;;;;;5.30;2.07;;;;;;;3.18;70.80;100070.84;5045252;28;20676;-80
2021/04/06 08:18:47;;;;;;;7.93;2.30;;;;;;;3.12;70.63;100064.91;5050479;28;20272;-81
2021/04/06 08:21:13;;;;;;;8.03;2.67;;;;;;;3.07;70.48;100061.59;5047713;28;20197;-80
2021/04/06 08:23:43;;;;;;;6.87;2.57;;;;;;;3.01;69.89;100068.91;5043708;28;20216;-80
2021/04/06 08:26:29;;;;;;;5.63;2.10;;;;;;;2.97;69.86;100067.31;5042349;28;20363;-82
2021/04/06 08:28:56;;;;;;;7.73;2.53;;;;;;;2.93;70.73;100078.88;5041958;28;20266;-82
2021/04/06 08:31:29;;;;;;;5.90;1.83;;;;;;;2.93;70.39;100071.00;5046591;28;20219;-82
2021/04/06 08:34:29;;;;;;;6.23;2.03;;;;;;;2.96;70.98;100068.25;5042618;28;20198;-81
2021/04/06 08:37:06;;;;;;;9.27;4.20;;;;;;;3.01;71.89;100071.53;5044033;28;20606;-79
2021/04/06 08:39:34;;;;;;;7.93;3.37;;;;;;;3.04;71.68;100071.44;5050181;28;20244;-79
2021/04/06 08:42:01;;;;;;;12.23;3.00;;;;;;;3.09;71.88;100072.91;5057692;28;20198;-82
2021/04/06 08:44:27;;;;;;;6.00;2.80;;;;;;;3.22;73.33;100069.78;5058445;28;20304;-80
2021/04/06 08:46:54;;;;;;;6.93;2.03;;;;;;;3.36;73.87;100070.91;5058289;28;20578;-81
2021/04/06 08:49:22;;;;;;;3.00;1.40;;;;;;;3.52;73.09;100072.88;5059385;28;20707;-79
2021/04/06 08:51:52;;;;;;;5.03;1.80;;;;;;;3.62;72.71;100068.91;5052109;28;20240;-82
2021/04/06 08:54:20;;;;;;;5.47;2.10;;;;;;;3.73;71.80;100069.31;5041023;28;20207;-81
2021/04/06 08:56:50;;;;;;;4.90;2.80;;;;;;;3.81;71.34;100064.53;5027245;28;20212;-82
2021/04/06 08:59:20;;;;;;;7.80;2.17;;;;;;;3.94;70.76;100062.22;5043868;28;20313;-81
2021/04/06 09:01:48;;;;;;;7.87;1.97;;;;;;;4.07;70.77;100066.84;5049185;28;20198;-81
2021/04/06 09:04:17;;;;;;;4.83;1.77;;;;;;;4.24;70.03;100065.22;5042927;28;20653;-81
2021/04/06 09:06:44;;;;;;;7.00;1.90;;;;;;;4.35;68.42;100062.91;5041899;28;20779;-81
2021/04/06 09:09:12;;;;;;;6.87;1.80;;;;;;;4.43;67.97;100052.88;5023622;28;20313;-81
2021/04/06 09:11:40;;;;;;;6.33;2.30;;;;;;;4.52;66.99;100055.91;5045178;28;20205;-82
2021/04/06 09:14:07;;;;;;;7.80;2.03;;;;;;;4.64;67.02;100049.22;5033375;28;20213;-82
2021/04/06 09:16:34;;;;;;;7.37;1.70;;;;;;;4.74;66.34;100054.88;5033652;28;20226;-81
2021/04/06 09:19:03;;;;;;;6.40;2.10;;;;;;;4.84;64.71;100048.22;5044121;28;20253;-80
2021/04/06 09:21:31;;;;;;;6.50;2.47;;;;;;;4.96;64.53;100041.50;5033547;28;20199;-82
2021/04/06 09:24:00;;;;;;;7.80;2.30;;;;;;;5.06;64.91;100040.94;5038848;28;20213;-82
2021/04/06 09:26:28;;;;;;;5.30;1.93;;;;;;;5.16;63.90;100036.06;5036230;28;20236;-83
2021/04/06 09:29:07;;;;;;;7.53;1.90;;;;;;;5.24;62.92;100037.38;5037416;28;20719;-80
2021/04/06 09:31:35;;;;;;;4.57;1.50;;;;;;;5.32;61.98;100041.41;5039678;28;20746;-83
2021/04/06 09:34:03;;;;;;;8.20;1.87;;;;;;;5.33;61.42;100028.13;5043476;28;20209;-82
2021/04/06 09:36:30;;;;;;;7.97;1.70;;;;;;;5.38;60.63;100023.44;5047383;28;20231;-81
2021/04/06 09:38:56;;;;;;;5.97;1.73;;;;;;;5.43;60.63;100026.72;5044336;28;20232;-83
2021/04/06 09:41:29;;;;;;;8.47;1.90;;;;;;;5.44;59.60;100040.78;5043075;28;20741;-80
2021/04/06 09:43:55;;;;;;;9.03;2.00;;;;;;;5.41;59.71;100022.44;5037257;28;20356;-82
2021/04/06 09:46:21;;;;;;;5.60;2.07;;;;;;;5.43;59.32;100028.50;5035142;28;20258;-82
2021/04/06 09:48:53;;;;;;;9.40;1.60;;;;;;;5.35;58.50;100028.91;5038440;28;20221;-81
2021/04/06 09:51:20;;;;;;;5.03;1.50;;;;;;;5.30;57.94;100015.09;5048722;28;20194;-82
2021/04/06 09:53:46;;;;;;;10.37;2.10;;;;;;;5.30;58.42;100024.78;5041140;28;20210;-81
2021/04/06 09:56:13;;;;;;;9.57;1.97;;;;;;;5.30;57.34;100014.22;5053061;28;20208;-80
2021/04/06 09:58:40;;;;;;;7.07;1.83;;;;;;;5.32;57.84;100012.38;5039634;28;20206;-82
2021/04/06 10:01:17;;;;;;;6.10;1.63;;;;;;;5.35;57.40;100002.50;5025751;28;20305;-78
2021/04/06 10:03:45;;;;;;;6.80;1.80;;;;;;;5.39;57.13;100009.31;5037233;28;20217;-82
2021/04/06 10:06:13;;;;;;;5.23;1.23;;;;;;;5.43;57.07;100007.38;5032492;28;20252;-80
2021/04/06 10:08:40;;;;;;;9.63;2.20;;;;;;;5.48;56.67;100003.56;5031171;28;20212;-83
2021/04/06 10:11:07;;;;;;;6.83;1.30;;;;;;;5.56;56.09;100003.13;5028524;28;20215;-80
2021/04/06 10:13:36;;;;;;;5.67;1.37;;;;;;;5.59;55.65;100022.31;5037372;28;20206;-80
2021/04/06 10:16:08;;;;;;;5.70;2.90;;;;;;;5.50;55.84;100036.03;5051189;28;20548;-82
2021/04/06 10:18:43;;;;;;;5.43;1.30;;;;;;;5.35;56.83;100049.19;5032293;28;20475;-81
2021/04/06 10:21:17;;;;;;;6.80;1.77;;;;;;;5.06;57.44;100037.44;5028643;28;20640;-81
2021/04/06 10:23:44;;;;;;;7.57;1.77;;;;;;;4.80;58.33;100031.69;5037666;28;20196;-83
2021/04/06 10:26:20;;;;;;;5.93;2.10;;;;;;;4.60;60.10;100026.53;5048243;28;20259;-83
2021/04/06 10:28:46;;;;;;;4.57;1.60;;;;;;;4.51;61.42;100016.44;5040626;28;20197;-81
2021/04/06 10:31:14;;;;;;;5.57;2.00;;;;;;;4.50;62.74;100014.72;5044202;28;20674;-77
2021/04/06 10:33:40;;;;;;;7.03;2.20;;;;;;;4.51;63.73;100009.38;5030905;28;20202;-82
2021/04/06 10:36:09;;;;;;;5.53;1.83;;;;;;;4.57;65.03;99997.69;5034819;28;20675;-80
2021/04/06 10:38:37;;;;;;;6.00;1.90;;;;;;;4.64;65.18;99993.81;5037723;28;20230;-82
2021/04/06 10:41:06;;;;;;;5.03;1.80;;;;;;;4.68;65.76;100000.63;5038091;28;20244;-82
2021/04/06 10:43:33;;;;;;;6.93;1.50;;;;;;;4.68;65.36;99994.50;5042445;28;20206;-80
2021/04/06 10:46:03;;;;;;;6.90;1.73;;;;;;;4.66;65.13;99999.84;5043205;28;20268;-79
2021/04/06 10:48:32;;;;;;;6.27;1.63;;;;;;;4.61;65.43;99999.25;5032823;28;20276;-81
2021/04/06 10:51:03;;;;;;;6.97;2.37;;;;;;;4.50;65.17;99999.75;5037798;28;20205;-80
2021/04/06 10:53:32;;;;;;;7.30;1.57;;;;;;;4.41;64.50;100023.09;5043410;28;20248;-82
2021/04/06 10:56:07;;;;;;;4.23;1.50;;;;;;;4.25;64.73;100011.56;5041848;28;20277;-81
2021/04/06 10:58:36;;;;;;;6.70;1.60;;;;;;;4.09;65.06;100022.84;5035470;28;20293;-82
2021/04/06 11:01:07;;;;;;;6.27;1.27;;;;;;;3.94;65.77;100010.34;5036998;28;20206;-82
2021/04/06 11:03:47;;;;;;;6.37;1.60;;;;;;;3.75;66.40;100002.47;5036346;28;20282;-82
2021/04/06 11:06:16;;;;;;;5.03;1.70;;;;;;;3.62;66.55;99984.66;5032072;28;20244;-83
2021/04/06 11:08:44;;;;;;;4.03;1.37;;;;;;;3.53;67.56;99977.19;5041443;28;20251;-79
2021/04/06 11:11:23;;;;;;;6.03;2.07;;;;;;;3.53;68.37;99974.53;5033333;28;20212;-81
2021/04/06 11:13:49;;;;;;;7.20;1.93;;;;;;;3.58;68.91;99977.84;5045411;28;20225;-82
2021/04/06 11:16:16;;;;;;;7.20;2.10;;;;;;;3.65;69.85;99971.34;5040582;28;20273;-81
2021/04/06 11:18:43;;;;;;;4.90;1.80;;;;;;;3.72;70.34;99965.75;5036948;28;20681;-83
2021/04/06 11:21:10;;;;;;;7.80;1.97;;;;;;;3.81;70.45;99948.63;5036402;28;20273;-82
2021/04/06 11:23:36;;;;;;;5.37;1.90;;;;;;;3.89;70.29;99962.31;5042226;28;20224;-82
2021/04/06 11:26:03;;;;;;;10.20;2.30;;;;;;;4.04;70.19;99955.47;5038208;28;20676;-81
2021/04/06 11:28:29;;;;;;;4.03;1.23;;;;;;;4.16;70.27;99945.19;5039630;28;20274;-83
2021/04/06 11:30:55;;;;;;;4.00;1.87;;;;;;;4.30;70.40;99943.69;5045054;28;20624;-82
2021/04/06 11:33:21;;;;;;;4.57;2.10;;;;;;;4.45;69.41;99948.19;5041053;28;20282;-81
2021/04/06 11:35:48;;;;;;;7.17;1.60;;;;;;;4.55;67.98;99946.78;5036722;28;20571;-80
2021/04/06 11:38:16;;;;;;;4.23;1.37;;;;;;;4.60;67.45;99971.16;5031498;28;20202;-79
2021/04/06 11:40:42;;;;;;;3.40;1.40;;;;;;;4.59;65.96;99966.81;5037263;28;20229;-79
2021/04/06 11:43:09;;;;;;;3.33;1.40;;;;;;;4.53;65.25;99961.84;5039939;28;20234;-82